createdAt,value
2023-02-05T00:02:22.313Z,62.10
2023-02-05T00:04:50.482Z,62.00
2023-02-05T00:07:20.783Z,62.10
2023-02-05T00:09:48.970Z,62.10
2023-02-05T00:12:18.610Z,62.10
2023-02-05T00:14:46.846Z,62.30
2023-02-05T00:17:15.002Z,62.30
2023-02-05T00:19:43.178Z,62.50
2023-02-05T00:22:11.321Z,62.60
2023-02-05T00:24:39.546Z,62.80
2023-02-05T00:27:10.184Z,63.10
2023-02-05T00:29:39.958Z,63.20
2023-02-05T00:32:08.124Z,63.30
2023-02-05T00:34:36.328Z,63.40
2023-02-05T00:37:04.479Z,63.60
2023-02-05T00:39:32.636Z,63.80
2023-02-05T00:42:00.792Z,63.90
2023-02-05T00:44:29.005Z,63.80
2023-02-05T00:46:58.561Z,63.80
2023-02-05T00:49:26.695Z,63.80
2023-02-05T00:51:55.058Z,63.80
2023-02-05T00:54:23.257Z,63.90
2023-02-05T00:56:51.422Z,63.90
2023-02-05T00:59:19.627Z,63.90
2023-02-05T01:01:47.838Z,63.90
2023-02-05T01:04:20.096Z,63.90
2023-02-05T01:06:48.302Z,63.90
2023-02-05T01:09:16.492Z,63.90
2023-02-05T01:11:44.634Z,63.90
2023-02-05T01:14:12.812Z,63.90
2023-02-05T01:16:40.978Z,63.90
2023-02-05T01:19:09.165Z,64.70
2023-02-05T01:21:38.726Z,64.10
2023-02-05T01:24:07.177Z,64.10
2023-02-05T01:26:35.380Z,64.30
2023-02-05T01:29:03.586Z,64.40
2023-02-05T01:31:33.317Z,64.50
2023-02-05T01:34:01.563Z,64.60
2023-02-05T01:36:29.741Z,64.70
2023-02-05T01:38:59.285Z,64.70
2023-02-05T01:41:27.426Z,64.80
2023-02-05T01:44:11.204Z,64.80
2023-02-05T01:46:40.455Z,65.00
2023-02-05T01:49:11.999Z,64.90
2023-02-05T01:51:40.577Z,65.10
2023-02-05T01:54:10.534Z,65.10
2023-02-05T01:56:42.014Z,65.10
2023-02-05T01:59:13.348Z,65.30
2023-02-05T02:01:43.212Z,65.30
2023-02-05T02:04:14.742Z,65.30
2023-02-05T02:06:43.247Z,65.30
2023-02-05T02:09:13.415Z,65.30
2023-02-05T02:11:44.726Z,65.30
2023-02-05T02:14:13.939Z,65.30
2023-02-05T02:16:42.640Z,65.30
2023-02-05T02:19:17.832Z,65.30
2023-02-05T02:22:13.901Z,65.20
2023-02-05T02:25:08.861Z,65.10
2023-02-05T02:27:44.526Z,65.10
2023-02-05T02:30:20.144Z,65.00
2023-02-05T02:32:53.847Z,64.90
2023-02-05T02:35:28.871Z,64.90
2023-02-05T02:38:05.896Z,64.80
2023-02-05T02:40:39.935Z,64.90
2023-02-05T02:43:14.705Z,64.90
2023-02-05T02:45:48.952Z,64.80
2023-02-05T02:48:19.798Z,64.70
2023-02-05T02:50:53.236Z,64.70
2023-02-05T02:53:25.112Z,64.70
2023-02-05T02:55:54.498Z,64.70
2023-02-05T02:58:28.835Z,64.70
2023-02-05T03:00:58.549Z,65.40
2023-02-05T03:03:29.901Z,64.80
2023-02-05T03:06:01.317Z,64.80
2023-02-05T03:08:34.665Z,65.00
2023-02-05T03:11:09.871Z,65.10
2023-02-05T03:13:39.585Z,65.10
2023-02-05T03:16:08.564Z,65.10
2023-02-05T03:18:37.244Z,65.20
2023-02-05T03:21:10.308Z,65.30
2023-02-05T03:23:38.463Z,65.40
2023-02-05T03:26:06.890Z,65.40
2023-02-05T03:28:35.070Z,65.50
2023-02-05T03:31:10.814Z,65.60
2023-02-05T03:33:46.232Z,65.70
2023-02-05T03:36:21.936Z,65.80
2023-02-05T03:39:12.552Z,65.80
2023-02-05T03:41:57.178Z,65.90
2023-02-05T03:44:43.194Z,65.80
2023-02-05T03:47:21.636Z,65.60
2023-02-05T03:49:59.072Z,65.70
2023-02-05T03:52:33.307Z,65.90
2023-02-05T03:55:08.811Z,65.70
2023-02-05T03:57:41.011Z,65.70
2023-02-05T04:00:10.815Z,65.60
2023-02-05T04:02:40.426Z,65.50
2023-02-05T04:05:08.964Z,65.60
2023-02-05T04:07:37.124Z,65.60
2023-02-05T04:10:05.580Z,65.50
2023-02-05T04:12:33.728Z,65.50
2023-02-05T04:15:01.910Z,65.50
2023-02-05T04:17:30.183Z,65.30
2023-02-05T04:19:59.707Z,65.20
2023-02-05T04:22:27.911Z,65.20
2023-02-05T04:24:56.217Z,65.20
2023-02-05T04:27:24.411Z,65.10
2023-02-05T04:29:52.582Z,65.00
2023-02-05T04:32:20.734Z,64.90
2023-02-05T04:34:48.891Z,65.00
2023-02-05T04:37:18.505Z,65.00
2023-02-05T04:39:47.943Z,64.90
2023-02-05T04:42:16.157Z,64.90
2023-02-05T04:44:44.316Z,64.90
2023-02-05T04:47:12.945Z,64.90
2023-02-05T04:49:41.875Z,65.00
2023-02-05T04:52:10.032Z,65.10
2023-02-05T04:54:39.898Z,65.10
2023-02-05T04:57:08.058Z,65.10
2023-02-05T04:59:36.217Z,65.00
2023-02-05T05:02:04.405Z,65.10
2023-02-05T05:04:32.585Z,65.20
2023-02-05T05:07:00.760Z,65.20
2023-02-05T05:09:28.949Z,65.10
2023-02-05T05:11:58.491Z,65.20
2023-02-05T05:14:26.643Z,65.10
2023-02-05T05:16:54.819Z,65.10
2023-02-05T05:19:22.978Z,65.00
2023-02-05T05:21:51.121Z,65.10
2023-02-05T05:24:19.348Z,65.10
2023-02-05T05:26:47.518Z,65.10
2023-02-05T05:29:17.284Z,65.10
2023-02-05T05:31:45.594Z,65.20
2023-02-05T05:34:13.755Z,65.10
2023-02-05T05:36:43.623Z,65.00
2023-02-05T05:39:29.428Z,65.00
2023-02-05T05:42:14.003Z,65.20
2023-02-05T05:44:43.578Z,65.20
2023-02-05T05:47:11.767Z,65.10
2023-02-05T05:49:40.002Z,65.10
2023-02-05T05:52:08.128Z,65.20
2023-02-05T05:54:36.288Z,65.20
2023-02-05T05:57:04.725Z,65.10
2023-02-05T05:59:32.893Z,65.10
2023-02-05T06:02:04.525Z,65.20
2023-02-05T06:04:32.761Z,65.50
2023-02-05T06:07:02.299Z,65.50
2023-02-05T06:09:30.605Z,65.60
2023-02-05T06:11:58.780Z,65.70
2023-02-05T06:14:27.028Z,65.80
2023-02-05T06:16:56.314Z,65.90
2023-02-05T06:19:25.879Z,65.90
2023-02-05T06:21:54.035Z,66.00
2023-02-05T06:24:22.236Z,66.00
2023-02-05T06:26:50.402Z,66.10
2023-02-05T06:29:18.623Z,66.90
2023-02-05T06:31:46.889Z,66.30
2023-02-05T06:34:15.132Z,66.50
2023-02-05T06:36:44.692Z,66.70
2023-02-05T06:39:12.841Z,66.70
2023-02-05T06:41:40.995Z,66.80
2023-02-05T06:44:09.312Z,66.90
2023-02-05T06:46:37.528Z,67.00
2023-02-05T06:49:05.750Z,67.30
2023-02-05T06:51:33.938Z,67.50
2023-02-05T06:54:03.474Z,67.50
2023-02-05T06:56:31.667Z,67.90
2023-02-05T06:58:59.811Z,68.00
2023-02-05T07:01:27.997Z,68.00
2023-02-05T07:03:56.311Z,68.10
2023-02-05T07:06:24.598Z,68.30
2023-02-05T07:08:52.971Z,68.30
2023-02-05T07:11:22.998Z,68.40
2023-02-05T07:13:51.201Z,68.60
2023-02-05T07:16:19.524Z,68.70
2023-02-05T07:18:47.859Z,69.00
2023-02-05T07:21:17.667Z,69.00
2023-02-05T07:23:46.119Z,69.10
2023-02-05T07:26:16.243Z,69.20
2023-02-05T07:28:46.617Z,69.20
2023-02-05T07:31:17.315Z,69.20
2023-02-05T07:33:46.795Z,69.20
2023-02-05T07:36:17.437Z,69.30
2023-02-05T07:38:47.037Z,69.30
2023-02-05T07:41:16.724Z,69.10
2023-02-05T07:43:46.548Z,69.70
2023-02-05T07:46:15.722Z,68.90
2023-02-05T07:48:44.039Z,68.90
2023-02-05T07:51:17.934Z,68.90
2023-02-05T07:53:46.446Z,68.90
2023-02-05T07:56:15.632Z,68.90
2023-02-05T07:58:45.309Z,68.90
2023-02-05T08:01:13.473Z,68.90
2023-02-05T08:03:41.689Z,69.00
2023-02-05T08:06:13.993Z,69.10
2023-02-05T08:08:42.244Z,69.00
2023-02-05T08:11:16.052Z,68.90
2023-02-05T08:13:46.664Z,68.90
2023-02-05T08:16:16.745Z,69.00
2023-02-05T08:18:48.153Z,69.00
2023-02-05T08:21:16.377Z,69.10
2023-02-05T08:23:44.619Z,69.10
2023-02-05T08:26:15.002Z,69.20
2023-02-05T08:28:46.025Z,69.30
2023-02-05T08:31:16.498Z,69.40
2023-02-05T08:33:45.815Z,69.50
2023-02-05T08:36:14.066Z,69.50
2023-02-05T08:38:42.232Z,69.50
2023-02-05T08:41:13.363Z,69.70
2023-02-05T08:43:42.969Z,69.60
2023-02-05T08:46:14.464Z,69.60
2023-02-05T08:48:43.004Z,69.60
2023-02-05T08:51:12.410Z,70.50
2023-02-05T08:53:40.945Z,69.90
2023-02-05T08:56:10.847Z,70.20
2023-02-05T08:58:40.019Z,70.20
2023-02-05T09:01:10.395Z,70.20
2023-02-05T09:03:40.224Z,70.20
2023-02-05T09:06:10.250Z,70.20
2023-02-05T09:08:39.172Z,70.30
2023-02-05T09:11:09.938Z,70.50
2023-02-05T09:13:39.249Z,70.50
2023-02-05T09:16:10.959Z,70.50
2023-02-05T09:18:40.560Z,70.40
2023-02-05T09:21:09.709Z,70.40
2023-02-05T09:23:38.591Z,70.40
2023-02-05T09:26:07.092Z,70.40
2023-02-05T09:28:35.365Z,70.60
2023-02-05T09:31:08.352Z,70.60
2023-02-05T09:33:36.620Z,70.50
2023-02-05T09:36:11.020Z,70.50
2023-02-05T09:38:39.550Z,70.50
2023-02-05T09:41:15.469Z,70.40
2023-02-05T09:43:51.774Z,70.50
2023-02-05T09:46:28.185Z,70.70
2023-02-05T09:48:59.465Z,70.80
2023-02-05T09:51:35.074Z,71.00
2023-02-05T09:54:12.946Z,71.20
2023-02-05T09:56:41.452Z,71.30
2023-02-05T09:59:15.353Z,71.10
2023-02-05T10:01:49.059Z,71.10
2023-02-05T10:04:17.488Z,71.00
2023-02-05T10:07:04.078Z,71.20
2023-02-05T10:09:44.544Z,71.70
2023-02-05T10:12:24.428Z,71.80
2023-02-05T10:15:04.879Z,71.80
2023-02-05T10:17:43.864Z,71.90
2023-02-05T10:20:34.426Z,72.20
2023-02-05T10:23:14.761Z,72.30
2023-02-05T10:25:56.342Z,72.20
2023-02-05T10:28:51.197Z,72.40
2023-02-05T10:31:28.799Z,72.40
2023-02-05T10:34:05.559Z,72.20
2023-02-05T10:36:34.319Z,72.40
2023-02-05T10:39:11.654Z,72.30
2023-02-05T10:41:43.727Z,72.30
2023-02-05T10:44:16.005Z,72.40
2023-02-05T10:46:51.674Z,72.40
2023-02-05T10:49:25.579Z,72.30
2023-02-05T10:51:55.024Z,72.40
2023-02-05T10:54:29.641Z,72.60
2023-02-05T10:56:58.742Z,72.90
2023-02-05T10:59:30.392Z,72.80
2023-02-05T11:02:04.340Z,72.80
2023-02-05T11:04:40.700Z,72.70
2023-02-05T11:07:14.443Z,72.80
2023-02-05T11:09:44.553Z,72.90
2023-02-05T11:12:24.064Z,72.90
2023-02-05T11:14:58.901Z,73.00
2023-02-05T11:17:33.241Z,72.90
2023-02-05T11:20:04.160Z,72.70
2023-02-05T11:22:35.419Z,72.70
2023-02-05T11:25:15.964Z,72.80
2023-02-05T11:27:53.571Z,73.00
2023-02-05T11:30:50.025Z,73.70
2023-02-05T11:33:32.377Z,72.90
2023-02-05T11:36:03.398Z,72.80
2023-02-05T11:38:43.269Z,72.70
2023-02-05T11:41:16.696Z,72.70
2023-02-05T11:43:50.647Z,72.60
2023-02-05T11:46:21.586Z,72.60
2023-02-05T11:48:56.541Z,72.40
2023-02-05T11:51:39.972Z,72.60
2023-02-05T11:54:17.967Z,72.90
2023-02-05T11:57:01.764Z,72.70
2023-02-05T11:59:30.015Z,72.60
2023-02-05T12:02:28.638Z,72.50
2023-02-05T12:05:02.073Z,72.70
2023-02-05T12:07:36.197Z,72.40
2023-02-05T12:10:04.746Z,72.40
2023-02-05T12:12:43.924Z,72.50
2023-02-05T12:15:18.042Z,72.70
2023-02-05T12:17:55.147Z,72.70
2023-02-05T12:20:29.471Z,76.70
2023-02-05T12:23:25.746Z,76.80
2023-02-05T12:26:05.870Z,75.10
2023-02-05T12:28:45.673Z,72.90
2023-02-05T12:31:24.000Z,69.90
2023-02-05T12:34:18.921Z,68.30
2023-02-05T12:37:01.264Z,67.10
2023-02-05T12:39:40.186Z,66.70
2023-02-05T12:42:20.646Z,66.60
2023-02-05T12:45:04.766Z,66.60
2023-02-05T12:47:47.352Z,66.50
2023-02-05T12:50:35.415Z,66.80
2023-02-05T12:53:17.738Z,67.40
2023-02-05T12:55:59.514Z,67.60
2023-02-05T12:58:35.062Z,68.00
2023-02-05T13:01:09.975Z,68.30
2023-02-05T13:03:43.532Z,68.30
2023-02-05T13:06:19.718Z,68.60
2023-02-05T13:08:52.645Z,68.80
2023-02-05T13:11:25.518Z,69.10
2023-02-05T13:13:59.448Z,69.30
2023-02-05T13:16:38.889Z,69.40
2023-02-05T13:19:18.422Z,69.80
2023-02-05T13:22:05.572Z,70.40
2023-02-05T13:24:55.791Z,70.30
2023-02-05T13:27:59.793Z,70.10
2023-02-05T13:30:32.923Z,70.30
2023-02-05T13:33:06.747Z,70.40
2023-02-05T13:35:42.627Z,71.40
2023-02-05T13:38:32.299Z,70.80
2023-02-05T13:41:28.906Z,71.00
2023-02-05T13:44:19.727Z,70.80
2023-02-05T13:47:22.489Z,70.70
2023-02-05T13:50:32.835Z,70.70
2023-02-05T13:53:28.826Z,70.80
2023-02-05T13:56:27.183Z,70.70
2023-02-05T13:58:58.684Z,70.60
2023-02-05T14:01:31.846Z,70.50
2023-02-05T14:04:03.157Z,70.50
2023-02-05T14:06:36.686Z,70.40
2023-02-05T14:09:08.686Z,70.30
2023-02-05T14:11:50.628Z,70.00
2023-02-05T14:14:29.003Z,70.00
2023-02-05T14:16:58.542Z,69.70
2023-02-05T14:19:55.989Z,69.80
2023-02-05T14:22:46.504Z,69.80
2023-02-05T14:26:06.570Z,70.10
2023-02-05T14:28:48.620Z,69.80
2023-02-05T14:31:49.516Z,69.90
2023-02-05T14:34:49.160Z,69.90
2023-02-05T14:37:39.746Z,69.90
2023-02-05T14:40:24.482Z,69.80
2023-02-05T14:43:08.426Z,69.80
2023-02-05T14:45:45.718Z,69.70
2023-02-05T14:48:22.942Z,69.80
2023-02-05T14:51:03.980Z,69.90
2023-02-05T14:53:34.034Z,70.00
2023-02-05T14:56:05.205Z,70.00
2023-02-05T14:58:40.772Z,70.20
2023-02-05T15:01:31.919Z,70.00
2023-02-05T15:04:01.185Z,70.10
2023-02-05T15:06:31.134Z,70.10
2023-02-05T15:09:05.545Z,70.00
2023-02-05T15:11:53.771Z,70.00
2023-02-05T15:14:41.630Z,70.00
2023-02-05T15:17:44.453Z,70.00
2023-02-05T15:20:22.111Z,70.20
2023-02-05T15:22:55.734Z,70.20
2023-02-05T15:25:33.855Z,70.10
2023-02-05T15:28:08.870Z,70.20
2023-02-05T15:30:49.096Z,70.20
2023-02-05T15:33:23.987Z,70.30
2023-02-05T15:35:52.952Z,70.20
2023-02-05T15:38:29.166Z,70.10
2023-02-05T15:40:58.673Z,70.20
2023-02-05T15:43:28.880Z,70.10
2023-02-05T15:46:02.862Z,70.20
2023-02-05T15:48:33.465Z,70.10
2023-02-05T15:51:03.881Z,70.10
2023-02-05T15:53:35.502Z,71.00
2023-02-05T15:56:12.087Z,70.30
2023-02-05T15:58:46.712Z,70.20
2023-02-05T16:01:24.451Z,70.20
2023-02-05T16:03:52.689Z,70.20
2023-02-05T16:06:22.206Z,70.00
2023-02-05T16:08:52.249Z,69.80
2023-02-05T16:11:28.859Z,69.70
2023-02-05T16:14:14.681Z,69.70
2023-02-05T16:16:47.432Z,69.70
2023-02-05T16:19:21.682Z,69.60
2023-02-05T16:21:53.669Z,69.40
2023-02-05T16:24:27.269Z,69.40
2023-02-05T16:27:00.627Z,69.50
2023-02-05T16:29:46.967Z,69.30
2023-02-05T16:32:26.337Z,70.00
2023-02-05T16:34:54.574Z,69.30
2023-02-05T16:37:29.089Z,69.30
2023-02-05T16:39:58.622Z,69.40
2023-02-05T16:42:35.285Z,69.40
2023-02-05T16:45:23.640Z,69.50
2023-02-05T16:48:21.944Z,69.60
2023-02-05T16:50:50.342Z,69.60
2023-02-05T16:53:25.565Z,69.50
2023-02-05T16:55:59.320Z,69.60
2023-02-05T16:58:34.128Z,69.50
2023-02-05T17:01:05.084Z,69.60
2023-02-05T17:03:37.325Z,69.70
2023-02-05T17:06:09.967Z,69.80
2023-02-05T17:08:39.119Z,69.80
2023-02-05T17:11:09.458Z,69.90
2023-02-05T17:13:40.423Z,70.00
2023-02-05T17:16:26.925Z,70.00
2023-02-05T17:18:57.572Z,70.20
2023-02-05T17:21:29.252Z,70.10
2023-02-05T17:23:59.666Z,70.10
2023-02-05T17:26:30.895Z,70.20
2023-02-05T17:29:01.003Z,70.20
2023-02-05T17:31:32.492Z,70.30
2023-02-05T17:34:00.863Z,70.30
2023-02-05T17:36:29.080Z,70.30
2023-02-05T17:38:57.507Z,70.30
2023-02-05T17:41:46.302Z,70.40
2023-02-05T17:44:16.690Z,70.40
2023-02-05T17:46:46.840Z,70.40
2023-02-05T17:49:15.041Z,70.40
2023-02-05T17:51:43.917Z,70.50
2023-02-05T17:54:15.044Z,70.50
2023-02-05T17:56:44.694Z,70.50
2023-02-05T17:59:14.827Z,70.50
2023-02-05T18:01:42.989Z,70.40
2023-02-05T18:04:13.128Z,70.40
2023-02-05T18:06:43.115Z,70.40
2023-02-05T18:09:12.412Z,70.40
2023-02-05T18:11:40.679Z,70.40
2023-02-05T18:14:09.184Z,70.30
2023-02-05T18:16:37.631Z,70.20
2023-02-05T18:19:05.882Z,70.20
2023-02-05T18:21:35.967Z,70.20
2023-02-05T18:24:04.791Z,70.20
2023-02-05T18:26:33.230Z,70.10
2023-02-05T18:29:01.381Z,70.10
2023-02-05T18:31:29.830Z,70.10
2023-02-05T18:33:58.136Z,70.00
2023-02-05T18:36:26.272Z,70.00
2023-02-05T18:38:57.573Z,69.80
2023-02-05T18:41:28.478Z,69.80
2023-02-05T18:43:57.339Z,69.80
2023-02-05T18:46:26.528Z,69.90
2023-02-05T18:48:56.283Z,69.90
2023-02-05T18:51:25.254Z,69.90
2023-02-05T18:53:54.083Z,69.90
2023-02-05T18:56:25.673Z,69.90
2023-02-05T18:58:56.399Z,69.90
2023-02-05T19:01:24.568Z,69.90
2023-02-05T19:03:54.643Z,69.90
2023-02-05T19:06:22.954Z,70.00
2023-02-05T19:08:51.464Z,70.00
2023-02-05T19:11:22.808Z,70.10
2023-02-05T19:13:58.063Z,70.10
2023-02-05T19:16:27.619Z,70.20
2023-02-05T19:18:55.911Z,70.20
2023-02-05T19:21:26.707Z,70.10
2023-02-05T19:23:56.298Z,70.20
2023-02-05T19:26:26.646Z,73.10
2023-02-05T19:28:58.378Z,76.10
2023-02-05T19:31:28.183Z,75.80
2023-02-05T19:33:57.256Z,73.30
2023-02-05T19:36:25.731Z,70.80
2023-02-05T19:38:54.117Z,69.10
2023-02-05T19:41:25.076Z,67.80
2023-02-05T19:43:55.310Z,67.00
2023-02-05T19:46:27.417Z,66.70
2023-02-05T19:48:57.139Z,66.40
2023-02-05T19:51:25.272Z,66.50
2023-02-05T19:53:53.447Z,66.50
2023-02-05T19:56:23.452Z,66.70
2023-02-05T19:58:53.598Z,66.90
2023-02-05T20:01:25.541Z,67.10
2023-02-05T20:03:54.145Z,67.40
2023-02-05T20:06:23.900Z,67.80
2023-02-05T20:08:52.126Z,67.90
2023-02-05T20:11:21.320Z,68.10
2023-02-05T20:13:49.654Z,68.30
2023-02-05T20:16:20.016Z,68.60
2023-02-05T20:18:54.311Z,68.70
2023-02-05T20:21:22.723Z,68.90
2023-02-05T20:23:51.154Z,68.90
2023-02-05T20:26:22.034Z,68.90
2023-02-05T20:29:11.287Z,68.90
2023-02-05T20:31:42.960Z,68.90
2023-02-05T20:34:18.240Z,69.00
2023-02-05T20:36:47.555Z,69.00
2023-02-05T20:39:17.179Z,69.00
2023-02-05T20:41:45.869Z,69.10
2023-02-05T20:44:14.294Z,69.10
2023-02-05T20:46:42.652Z,69.20
2023-02-05T20:49:12.572Z,69.90
2023-02-05T20:51:41.023Z,69.30
2023-02-05T20:54:09.461Z,69.40
2023-02-05T20:56:37.882Z,69.40
2023-02-05T20:59:08.110Z,69.60
2023-02-05T21:01:37.872Z,69.60
2023-02-05T21:04:07.334Z,69.70
2023-02-05T21:06:38.399Z,69.70
2023-02-05T21:09:07.380Z,70.00
2023-02-05T21:11:36.169Z,70.20
2023-02-05T21:14:04.579Z,70.20
2023-02-05T21:16:35.071Z,70.20
2023-02-05T21:19:04.479Z,70.30
2023-02-05T21:21:34.394Z,70.30
2023-02-05T21:24:06.233Z,70.50
2023-02-05T21:26:36.526Z,70.60
2023-02-05T21:29:07.627Z,70.60
2023-02-05T21:31:39.729Z,70.50
2023-02-05T21:34:09.812Z,70.80
2023-02-05T21:36:38.002Z,70.80
2023-02-05T21:39:07.771Z,70.90
2023-02-05T21:41:35.938Z,71.00
2023-02-05T21:44:04.993Z,71.00
2023-02-05T21:46:33.487Z,71.00
2023-02-05T21:49:02.266Z,71.00
2023-02-05T21:51:33.946Z,71.10
2023-02-05T21:54:03.986Z,71.10
2023-02-05T21:56:36.264Z,71.10
2023-02-05T21:59:04.836Z,71.10
2023-02-05T22:01:34.430Z,71.30
2023-02-05T22:04:05.050Z,71.30
2023-02-05T22:06:35.205Z,71.30
2023-02-05T22:09:04.992Z,71.50
2023-02-05T22:11:34.841Z,71.50
2023-02-05T22:14:03.026Z,71.60
2023-02-05T22:16:32.854Z,71.70
2023-02-05T22:19:02.886Z,71.70
2023-02-05T22:21:32.559Z,71.70
2023-02-05T22:24:02.668Z,71.50
2023-02-05T22:26:35.324Z,71.60
2023-02-05T22:29:06.203Z,71.60
2023-02-05T22:31:35.073Z,71.60
2023-02-05T22:34:03.671Z,71.60
2023-02-05T22:36:33.670Z,71.50
2023-02-05T22:39:02.128Z,71.50
2023-02-05T22:41:32.555Z,71.70
2023-02-05T22:44:04.028Z,71.80
2023-02-05T22:46:34.148Z,71.60
2023-02-05T22:49:03.735Z,71.70
2023-02-05T22:51:34.139Z,71.60
2023-02-05T22:54:02.733Z,71.60
2023-02-05T22:56:31.445Z,71.60
2023-02-05T22:59:03.283Z,71.70
2023-02-05T23:01:34.196Z,71.50
2023-02-05T23:04:06.472Z,71.40
2023-02-05T23:06:36.740Z,71.40
2023-02-05T23:09:08.070Z,71.30
2023-02-05T23:11:36.997Z,71.30
2023-02-05T23:14:07.552Z,71.20
2023-02-05T23:16:37.943Z,71.10
2023-02-05T23:19:10.626Z,71.20
2023-02-05T23:21:40.345Z,71.20
2023-02-05T23:24:09.496Z,71.20
2023-02-05T23:26:41.872Z,71.30
2023-02-05T23:29:12.973Z,71.30
2023-02-05T23:31:41.968Z,71.30
2023-02-05T23:34:10.578Z,71.30
2023-02-05T23:36:39.278Z,71.20
2023-02-05T23:39:07.623Z,71.00
2023-02-05T23:41:39.942Z,70.90
2023-02-05T23:44:12.936Z,70.70
2023-02-05T23:46:42.136Z,70.70
2023-02-05T23:49:10.478Z,70.70
2023-02-05T23:51:42.132Z,70.60
2023-02-05T23:54:12.166Z,70.50
2023-02-05T23:56:40.491Z,70.50
2023-02-05T23:59:10.912Z,70.40
